Airfield :
LOGIN :

Register | Disclaimer

   EN    FR    IT 

 










Legend :    VFR   Marginal VFR   IFR   Intensive IFR   Very Intensive IFR
Visi :
Ceiling :
>= 8 km
>= 3000ft
5 to 8 km
1000 to 3000 ft
1500m to 5 km
500 to 1000 ft
800 to 1500m
200 to 500 ft
< 800m
< 200 ft
Symbols :   Thunderstorms  Fog  Heavy snow  Heavy precipitations  Wind > 20 kt
SIGMETs :     Misc.  Thunderstorms  Icing  Turbulence  Mountain Waves  Volcanic Ashes






- Airport Elevation : 179 ft


LIPI - Rivolto AFB Udine

CURRENT METAR :
  • 030955Z 17004KT CAVOK 24/12 Q1008 RMK SCT SCT200 VIS MIN 9999 WIND THR06 18004KT WIND THR24 18003KT BLU

EXPIRED METARs :
  • 030855Z 22003KT CAVOK 23/12 Q1009 RMK SCT SCT180 VIS MIN 9999 WIND THR06 16005KT WIND THR24 VRB02KT BLU
  • 030755Z VRB02KT CAVOK 22/13 Q1009 RMK BKN BKN180 VIS MIN 9999 WIND THR06 VRB02KT WIND THR24 VRB02KT BLU
  • 030655Z 04003KT CAVOK 20/13 Q1009 RMK SCT SCT200 VIS MIN 9999 WIND THR06 05003KT WIND THR24 04003KT BLU

TAF TAF LIPI
Valid from the 03 at 09:00 until the 03 at 18:00 UTC


030800Z 0309/0318 18005KT CAVOK
TEMPO 0311/0318 21010KT FEW040 SCT060
PROB30
TEMPO 0311/0318 5000 TSRA FEW015CB BKN025



MET'MAP, your aeronautical weather chart ! - Copyright ORBIFLY December 2007 - Disclaimer

ORBIFLY MET'MAP TEAM :

Programming & Development : Alexandra Zaïnal
Concept & original design : Baudouin d'Aumeries
Assistance for programming : Marc-Olivier Méhu
Technical & hardware support : Manuel Goepfert

Contact : metmap@orbifly.com




SOURCES & CREDITS :

   NOAA